sensor_id;sensor_type;location;lat;lon;timestamp;temperature;humidity
56256;DHT22;57229;51.432;-2.598;2022-12-18T00:01:05;11.70;94.00
56256;DHT22;57229;51.432;-2.598;2022-12-18T00:03:35;11.70;94.00
56256;DHT22;57229;51.432;-2.598;2022-12-18T00:06:01;11.60;94.00
56256;DHT22;57229;51.432;-2.598;2022-12-18T00:08:28;11.60;94.00
56256;DHT22;57229;51.432;-2.598;2022-12-18T00:10:54;11.60;94.00
56256;DHT22;57229;51.432;-2.598;2022-12-18T00:13:19;11.50;94.00
56256;DHT22;57229;51.432;-2.598;2022-12-18T00:15:46;11.60;94.00
56256;DHT22;57229;51.432;-2.598;2022-12-18T00:18:12;11.50;94.00
56256;DHT22;57229;51.432;-2.598;2022-12-18T00:20:40;11.50;94.00
56256;DHT22;57229;51.432;-2.598;2022-12-18T00:23:09;11.50;94.00
56256;DHT22;57229;51.432;-2.598;2022-12-18T00:25:36;11.50;94.00
56256;DHT22;57229;51.432;-2.598;2022-12-18T00:28:04;11.40;94.00
56256;DHT22;57229;51.432;-2.598;2022-12-18T00:30:43;11.40;94.00
56256;DHT22;57229;51.432;-2.598;2022-12-18T00:33:23;11.40;94.60
56256;DHT22;57229;51.432;-2.598;2022-12-18T00:35:49;11.40;95.50
56256;DHT22;57229;51.432;-2.598;2022-12-18T00:38:15;11.40;95.50
56256;DHT22;57229;51.432;-2.598;2022-12-18T00:40:41;11.40;95.10
56256;DHT22;57229;51.432;-2.598;2022-12-18T00:43:13;11.40;94.90
56256;DHT22;57229;51.432;-2.598;2022-12-18T00:45:40;11.40;94.70
56256;DHT22;57229;51.432;-2.598;2022-12-18T00:48:08;11.30;94.60
56256;DHT22;57229;51.432;-2.598;2022-12-18T00:50:56;11.30;94.50
56256;DHT22;57229;51.432;-2.598;2022-12-18T00:53:29;11.30;94.50
56256;DHT22;57229;51.432;-2.598;2022-12-18T00:56:01;11.20;94.40
56256;DHT22;57229;51.432;-2.598;2022-12-18T00:58:31;11.30;94.40
56256;DHT22;57229;51.432;-2.598;2022-12-18T01:01:04;11.20;95.20
56256;DHT22;57229;51.432;-2.598;2022-12-18T01:03:53;11.30;95.70
56256;DHT22;57229;51.432;-2.598;2022-12-18T01:06:20;11.30;95.90
56256;DHT22;57229;51.432;-2.598;2022-12-18T01:08:45;11.30;95.80
56256;DHT22;57229;51.432;-2.598;2022-12-18T01:11:14;11.30;95.60
56256;DHT22;57229;51.432;-2.598;2022-12-18T01:13:58;11.20;95.30
56256;DHT22;57229;51.432;-2.598;2022-12-18T01:16:31;11.20;95.10
56256;DHT22;57229;51.432;-2.598;2022-12-18T01:19:01;11.20;95.00
56256;DHT22;57229;51.432;-2.598;2022-12-18T01:21:29;11.10;94.90
56256;DHT22;57229;51.432;-2.598;2022-12-18T01:23:55;11.10;94.80
56256;DHT22;57229;51.432;-2.598;2022-12-18T01:26:22;11.10;94.80
56256;DHT22;57229;51.432;-2.598;2022-12-18T01:28:48;11.10;94.80
56256;DHT22;57229;51.432;-2.598;2022-12-18T01:31:21;11.10;94.70
56256;DHT22;57229;51.432;-2.598;2022-12-18T01:33:47;11.00;94.70
56256;DHT22;57229;51.432;-2.598;2022-12-18T01:36:24;11.00;94.70
56256;DHT22;57229;51.432;-2.598;2022-12-18T01:38:53;11.00;94.60
56256;DHT22;57229;51.432;-2.598;2022-12-18T01:41:26;10.90;94.60
56256;DHT22;57229;51.432;-2.598;2022-12-18T01:50:03;10.90;94.50
56256;DHT22;57229;51.432;-2.598;2022-12-18T01:52:31;10.90;94.50
56256;DHT22;57229;51.432;-2.598;2022-12-18T01:54:59;10.90;94.50
56256;DHT22;57229;51.432;-2.598;2022-12-18T01:57:26;10.80;94.50
56256;DHT22;57229;51.432;-2.598;2022-12-18T01:59:53;10.90;94.50
56256;DHT22;57229;51.432;-2.598;2022-12-18T02:02:21;10.80;94.50
56256;DHT22;57229;51.432;-2.598;2022-12-18T02:04:47;10.80;94.50
56256;DHT22;57229;51.432;-2.598;2022-12-18T02:12:30;10.80;94.50
56256;DHT22;57229;51.432;-2.598;2022-12-18T02:15:00;10.70;94.50
56256;DHT22;57229;51.432;-2.598;2022-12-18T02:17:50;10.70;94.50
56256;DHT22;57229;51.432;-2.598;2022-12-18T02:20:45;10.70;94.40
56256;DHT22;57229;51.432;-2.598;2022-12-18T02:23:44;10.70;94.40
56256;DHT22;57229;51.432;-2.598;2022-12-18T02:26:14;10.70;94.40
56256;DHT22;57229;51.432;-2.598;2022-12-18T02:28:45;10.70;94.50
56256;DHT22;57229;51.432;-2.598;2022-12-18T02:31:19;10.70;94.50
56256;DHT22;57229;51.432;-2.598;2022-12-18T02:33:50;10.60;94.40
56256;DHT22;57229;51.432;-2.598;2022-12-18T02:36:18;10.60;94.50
56256;DHT22;57229;51.432;-2.598;2022-12-18T02:38:46;10.60;94.50
56256;DHT22;57229;51.432;-2.598;2022-12-18T02:41:13;10.60;94.50
56256;DHT22;57229;51.432;-2.598;2022-12-18T02:43:42;10.60;94.50
56256;DHT22;57229;51.432;-2.598;2022-12-18T02:51:50;10.50;94.50
56256;DHT22;57229;51.432;-2.598;2022-12-18T02:56:55;10.50;94.50
56256;DHT22;57229;51.432;-2.598;2022-12-18T02:59:38;10.50;94.50
56256;DHT22;57229;51.432;-2.598;2022-12-18T03:02:26;10.50;94.40
56256;DHT22;57229;51.432;-2.598;2022-12-18T03:07:42;10.40;94.40
56256;DHT22;57229;51.432;-2.598;2022-12-18T03:10:13;10.40;94.50
56256;DHT22;57229;51.432;-2.598;2022-12-18T03:12:47;10.40;94.40
56256;DHT22;57229;51.432;-2.598;2022-12-18T03:15:24;10.40;94.80
56256;DHT22;57229;51.432;-2.598;2022-12-18T03:18:04;10.40;94.50
56256;DHT22;57229;51.432;-2.598;2022-12-18T03:20:34;10.40;94.50
56256;DHT22;57229;51.432;-2.598;2022-12-18T03:23:13;10.40;94.50
56256;DHT22;57229;51.432;-2.598;2022-12-18T03:25:43;10.30;94.40
56256;DHT22;57229;51.432;-2.598;2022-12-18T03:28:14;10.30;94.40
56256;DHT22;57229;51.432;-2.598;2022-12-18T03:30:45;10.30;94.40
56256;DHT22;57229;51.432;-2.598;2022-12-18T03:33:19;10.30;94.40
56256;DHT22;57229;51.432;-2.598;2022-12-18T03:35:47;10.30;94.40
56256;DHT22;57229;51.432;-2.598;2022-12-18T03:38:13;10.30;94.40
56256;DHT22;57229;51.432;-2.598;2022-12-18T03:46:17;10.30;95.30
56256;DHT22;57229;51.432;-2.598;2022-12-18T03:48:48;10.30;96.40
56256;DHT22;57229;51.432;-2.598;2022-12-18T03:51:26;10.40;96.30
56256;DHT22;57229;51.432;-2.598;2022-12-18T03:54:02;10.40;96.20
56256;DHT22;57229;51.432;-2.598;2022-12-18T03:56:32;10.40;96.00
56256;DHT22;57229;51.432;-2.598;2022-12-18T03:59:00;10.50;95.90
56256;DHT22;57229;51.432;-2.598;2022-12-18T04:01:40;10.50;95.70
56256;DHT22;57229;51.432;-2.598;2022-12-18T04:04:14;10.50;95.60
56256;DHT22;57229;51.432;-2.598;2022-12-18T04:06:42;10.50;95.50
56256;DHT22;57229;51.432;-2.598;2022-12-18T04:09:09;10.50;95.40
56256;DHT22;57229;51.432;-2.598;2022-12-18T04:11:35;10.50;95.30
56256;DHT22;57229;51.432;-2.598;2022-12-18T04:14:01;10.50;95.40
56256;DHT22;57229;51.432;-2.598;2022-12-18T04:16:26;10.50;95.20
56256;DHT22;57229;51.432;-2.598;2022-12-18T04:18:52;10.40;95.10
56256;DHT22;57229;51.432;-2.598;2022-12-18T04:21:19;10.40;95.00
56256;DHT22;57229;51.432;-2.598;2022-12-18T04:23:46;10.40;95.00
56256;DHT22;57229;51.432;-2.598;2022-12-18T04:26:13;10.40;95.00
56256;DHT22;57229;51.432;-2.598;2022-12-18T04:28:39;10.40;95.00
56256;DHT22;57229;51.432;-2.598;2022-12-18T04:31:05;10.40;95.00
56256;DHT22;57229;51.432;-2.598;2022-12-18T04:33:30;10.40;94.90
56256;DHT22;57229;51.432;-2.598;2022-12-18T04:35:56;10.40;94.80
56256;DHT22;57229;51.432;-2.598;2022-12-18T04:38:22;10.40;94.80
56256;DHT22;57229;51.432;-2.598;2022-12-18T04:40:47;10.40;94.70
56256;DHT22;57229;51.432;-2.598;2022-12-18T04:43:13;10.40;94.70
56256;DHT22;57229;51.432;-2.598;2022-12-18T04:45:38;10.40;94.70
56256;DHT22;57229;51.432;-2.598;2022-12-18T04:48:04;10.40;94.70
56256;DHT22;57229;51.432;-2.598;2022-12-18T04:50:30;10.40;94.70
56256;DHT22;57229;51.432;-2.598;2022-12-18T04:52:56;10.40;94.60
56256;DHT22;57229;51.432;-2.598;2022-12-18T04:55:22;10.40;94.60
56256;DHT22;57229;51.432;-2.598;2022-12-18T04:57:48;10.40;94.60
56256;DHT22;57229;51.432;-2.598;2022-12-18T05:00:14;10.40;94.60
56256;DHT22;57229;51.432;-2.598;2022-12-18T05:02:40;10.40;94.60
56256;DHT22;57229;51.432;-2.598;2022-12-18T05:05:07;10.40;94.50
56256;DHT22;57229;51.432;-2.598;2022-12-18T05:07:32;10.40;94.50
56256;DHT22;57229;51.432;-2.598;2022-12-18T05:09:58;10.40;94.50
56256;DHT22;57229;51.432;-2.598;2022-12-18T05:12:24;10.30;94.50
56256;DHT22;57229;51.432;-2.598;2022-12-18T05:14:49;10.40;94.50
56256;DHT22;57229;51.432;-2.598;2022-12-18T05:17:15;10.40;94.50
56256;DHT22;57229;51.432;-2.598;2022-12-18T05:19:41;10.40;94.50
56256;DHT22;57229;51.432;-2.598;2022-12-18T05:22:07;10.40;94.40
56256;DHT22;57229;51.432;-2.598;2022-12-18T05:24:32;10.40;94.40
56256;DHT22;57229;51.432;-2.598;2022-12-18T05:26:58;10.40;94.40
56256;DHT22;57229;51.432;-2.598;2022-12-18T05:29:24;10.40;94.40
56256;DHT22;57229;51.432;-2.598;2022-12-18T05:31:49;10.30;94.30
56256;DHT22;57229;51.432;-2.598;2022-12-18T05:34:15;10.40;94.40
56256;DHT22;57229;51.432;-2.598;2022-12-18T05:36:41;10.40;94.30
56256;DHT22;57229;51.432;-2.598;2022-12-18T05:39:07;10.30;94.30
56256;DHT22;57229;51.432;-2.598;2022-12-18T05:41:33;10.30;94.30
56256;DHT22;57229;51.432;-2.598;2022-12-18T05:43:59;10.30;94.30
56256;DHT22;57229;51.432;-2.598;2022-12-18T05:46:24;10.30;94.30
56256;DHT22;57229;51.432;-2.598;2022-12-18T05:48:50;10.30;94.30
56256;DHT22;57229;51.432;-2.598;2022-12-18T05:51:18;10.30;94.20
56256;DHT22;57229;51.432;-2.598;2022-12-18T05:53:45;10.30;94.20
56256;DHT22;57229;51.432;-2.598;2022-12-18T05:56:14;10.30;94.20
56256;DHT22;57229;51.432;-2.598;2022-12-18T05:58:40;10.30;94.20
56256;DHT22;57229;51.432;-2.598;2022-12-18T06:01:26;10.30;94.10
56256;DHT22;57229;51.432;-2.598;2022-12-18T06:03:52;10.30;94.10
56256;DHT22;57229;51.432;-2.598;2022-12-18T06:06:26;10.30;94.10
56256;DHT22;57229;51.432;-2.598;2022-12-18T06:08:54;10.20;94.10
56256;DHT22;57229;51.432;-2.598;2022-12-18T06:11:22;10.20;94.10
56256;DHT22;57229;51.432;-2.598;2022-12-18T06:13:53;10.30;94.10
56256;DHT22;57229;51.432;-2.598;2022-12-18T06:16:19;10.30;94.10
56256;DHT22;57229;51.432;-2.598;2022-12-18T06:18:44;10.20;94.10
56256;DHT22;57229;51.432;-2.598;2022-12-18T06:21:10;10.20;94.10
56256;DHT22;57229;51.432;-2.598;2022-12-18T06:23:36;10.20;94.10
56256;DHT22;57229;51.432;-2.598;2022-12-18T06:26:10;10.20;94.10
56256;DHT22;57229;51.432;-2.598;2022-12-18T06:28:36;10.20;94.10
56256;DHT22;57229;51.432;-2.598;2022-12-18T06:31:04;10.20;94.10
56256;DHT22;57229;51.432;-2.598;2022-12-18T06:33:30;10.20;94.10
56256;DHT22;57229;51.432;-2.598;2022-12-18T06:36:07;10.10;94.00
56256;DHT22;57229;51.432;-2.598;2022-12-18T06:38:34;10.20;94.30
56256;DHT22;57229;51.432;-2.598;2022-12-18T06:41:10;10.10;94.00
56256;DHT22;57229;51.432;-2.598;2022-12-18T06:43:37;10.10;94.00
56256;DHT22;57229;51.432;-2.598;2022-12-18T06:46:03;10.10;93.90
56256;DHT22;57229;51.432;-2.598;2022-12-18T06:48:30;10.10;93.90
56256;DHT22;57229;51.432;-2.598;2022-12-18T06:50:56;10.10;93.90
56256;DHT22;57229;51.432;-2.598;2022-12-18T06:53:22;10.10;94.00
56256;DHT22;57229;51.432;-2.598;2022-12-18T06:55:48;10.10;94.00
56256;DHT22;57229;51.432;-2.598;2022-12-18T06:58:14;10.10;93.90
56256;DHT22;57229;51.432;-2.598;2022-12-18T07:00:40;10.10;93.90
56256;DHT22;57229;51.432;-2.598;2022-12-18T07:03:06;10.10;93.90
56256;DHT22;57229;51.432;-2.598;2022-12-18T07:05:31;10.10;93.90
56256;DHT22;57229;51.432;-2.598;2022-12-18T07:07:58;10.10;94.00
56256;DHT22;57229;51.432;-2.598;2022-12-18T07:10:24;10.10;93.90
56256;DHT22;57229;51.432;-2.598;2022-12-18T07:12:49;10.10;94.00
56256;DHT22;57229;51.432;-2.598;2022-12-18T07:15:15;10.00;93.90
56256;DHT22;57229;51.432;-2.598;2022-12-18T07:17:41;10.10;94.00
56256;DHT22;57229;51.432;-2.598;2022-12-18T07:20:07;10.00;93.90
56256;DHT22;57229;51.432;-2.598;2022-12-18T07:22:33;10.00;94.00
56256;DHT22;57229;51.432;-2.598;2022-12-18T07:24:58;10.10;94.00
56256;DHT22;57229;51.432;-2.598;2022-12-18T07:27:24;10.10;94.20
56256;DHT22;57229;51.432;-2.598;2022-12-18T07:29:50;10.10;94.40
56256;DHT22;57229;51.432;-2.598;2022-12-18T07:32:15;10.20;94.60
56256;DHT22;57229;51.432;-2.598;2022-12-18T07:34:41;10.30;94.50
56256;DHT22;57229;51.432;-2.598;2022-12-18T07:37:07;10.40;94.70
56256;DHT22;57229;51.432;-2.598;2022-12-18T07:39:32;10.50;94.60
56256;DHT22;57229;51.432;-2.598;2022-12-18T07:41:58;10.60;94.60
56256;DHT22;57229;51.432;-2.598;2022-12-18T07:44:43;10.70;94.50
56256;DHT22;57229;51.432;-2.598;2022-12-18T07:47:08;10.80;94.40
56256;DHT22;57229;51.432;-2.598;2022-12-18T07:49:34;10.90;94.40
56256;DHT22;57229;51.432;-2.598;2022-12-18T07:51:59;11.00;94.30
56256;DHT22;57229;51.432;-2.598;2022-12-18T07:54:25;11.10;94.10
56256;DHT22;57229;51.432;-2.598;2022-12-18T07:56:51;11.20;94.00
56256;DHT22;57229;51.432;-2.598;2022-12-18T07:59:18;11.30;93.90
56256;DHT22;57229;51.432;-2.598;2022-12-18T08:01:44;11.40;93.80
56256;DHT22;57229;51.432;-2.598;2022-12-18T08:04:09;11.40;93.80
56256;DHT22;57229;51.432;-2.598;2022-12-18T08:06:35;11.50;94.00
56256;DHT22;57229;51.432;-2.598;2022-12-18T08:09:01;11.60;94.00
56256;DHT22;57229;51.432;-2.598;2022-12-18T08:11:28;11.60;93.90
56256;DHT22;57229;51.432;-2.598;2022-12-18T08:13:54;11.70;93.80
56256;DHT22;57229;51.432;-2.598;2022-12-18T08:16:21;11.80;93.80
56256;DHT22;57229;51.432;-2.598;2022-12-18T08:18:47;11.90;93.80
56256;DHT22;57229;51.432;-2.598;2022-12-18T08:21:19;11.90;93.80
56256;DHT22;57229;51.432;-2.598;2022-12-18T08:23:46;12.00;93.80
56256;DHT22;57229;51.432;-2.598;2022-12-18T08:26:12;12.00;93.80
56256;DHT22;57229;51.432;-2.598;2022-12-18T08:28:39;12.10;93.80
56256;DHT22;57229;51.432;-2.598;2022-12-18T08:31:05;12.20;93.70
56256;DHT22;57229;51.432;-2.598;2022-12-18T08:33:31;12.20;93.70
56256;DHT22;57229;51.432;-2.598;2022-12-18T08:36:01;12.30;93.60
56256;DHT22;57229;51.432;-2.598;2022-12-18T08:38:41;12.30;93.50
56256;DHT22;57229;51.432;-2.598;2022-12-18T08:41:11;12.30;93.40
56256;DHT22;57229;51.432;-2.598;2022-12-18T08:43:57;12.40;93.30
56256;DHT22;57229;51.432;-2.598;2022-12-18T08:46:42;12.30;93.20
56256;DHT22;57229;51.432;-2.598;2022-12-18T08:49:09;12.40;93.20
56256;DHT22;57229;51.432;-2.598;2022-12-18T08:51:35;12.30;93.10
56256;DHT22;57229;51.432;-2.598;2022-12-18T08:54:01;12.30;93.10
56256;DHT22;57229;51.432;-2.598;2022-12-18T08:56:27;12.30;93.00
56256;DHT22;57229;51.432;-2.598;2022-12-18T08:58:54;12.30;93.00
56256;DHT22;57229;51.432;-2.598;2022-12-18T09:01:20;12.30;92.90
56256;DHT22;57229;51.432;-2.598;2022-12-18T09:03:46;12.20;92.90
56256;DHT22;57229;51.432;-2.598;2022-12-18T09:06:16;12.20;92.90
56256;DHT22;57229;51.432;-2.598;2022-12-18T09:08:43;12.10;92.80
56256;DHT22;57229;51.432;-2.598;2022-12-18T09:11:35;12.10;92.80
56256;DHT22;57229;51.432;-2.598;2022-12-18T09:14:01;12.10;92.80
56256;DHT22;57229;51.432;-2.598;2022-12-18T09:16:28;12.10;92.80
56256;DHT22;57229;51.432;-2.598;2022-12-18T09:18:57;12.00;92.80
56256;DHT22;57229;51.432;-2.598;2022-12-18T09:21:32;12.00;92.80
56256;DHT22;57229;51.432;-2.598;2022-12-18T09:23:58;11.90;92.80
56256;DHT22;57229;51.432;-2.598;2022-12-18T09:26:24;11.90;92.90
56256;DHT22;57229;51.432;-2.598;2022-12-18T09:28:51;11.90;92.90
56256;DHT22;57229;51.432;-2.598;2022-12-18T09:31:19;11.80;92.90
56256;DHT22;57229;51.432;-2.598;2022-12-18T09:33:45;11.80;92.90
56256;DHT22;57229;51.432;-2.598;2022-12-18T09:36:13;11.80;93.00
56256;DHT22;57229;51.432;-2.598;2022-12-18T09:38:39;11.80;93.00
56256;DHT22;57229;51.432;-2.598;2022-12-18T09:43:51;11.70;93.00
56256;DHT22;57229;51.432;-2.598;2022-12-18T09:46:29;11.70;93.10
56256;DHT22;57229;51.432;-2.598;2022-12-18T09:49:00;11.70;93.20
56256;DHT22;57229;51.432;-2.598;2022-12-18T09:51:30;11.60;93.20
56256;DHT22;57229;51.432;-2.598;2022-12-18T09:54:12;11.60;93.30
56256;DHT22;57229;51.432;-2.598;2022-12-18T09:56:42;11.60;93.30
56256;DHT22;57229;51.432;-2.598;2022-12-18T10:00:11;11.60;93.40
56256;DHT22;57229;51.432;-2.598;2022-12-18T10:02:23;11.60;93.30
56256;DHT22;57229;51.432;-2.598;2022-12-18T10:05:03;11.50;93.30
56256;DHT22;57229;51.432;-2.598;2022-12-18T10:10:19;11.50;93.30
56256;DHT22;57229;51.432;-2.598;2022-12-18T10:12:55;11.50;93.30
56256;DHT22;57229;51.432;-2.598;2022-12-18T10:21:05;11.50;93.90
56256;DHT22;57229;51.432;-2.598;2022-12-18T10:26:24;11.40;94.00
56256;DHT22;57229;51.432;-2.598;2022-12-18T10:28:51;11.50;94.20
56256;DHT22;57229;51.432;-2.598;2022-12-18T10:31:21;11.50;94.30
56256;DHT22;57229;51.432;-2.598;2022-12-18T10:33:47;11.50;94.20
56256;DHT22;57229;51.432;-2.598;2022-12-18T10:36:13;11.50;94.00
56256;DHT22;57229;51.432;-2.598;2022-12-18T10:38:39;11.50;93.90
56256;DHT22;57229;51.432;-2.598;2022-12-18T10:43:46;11.40;93.70
56256;DHT22;57229;51.432;-2.598;2022-12-18T10:46:14;11.40;93.70
56256;DHT22;57229;51.432;-2.598;2022-12-18T10:48:49;11.30;93.70
56256;DHT22;57229;51.432;-2.598;2022-12-18T10:51:26;11.40;93.70
56256;DHT22;57229;51.432;-2.598;2022-12-18T10:54:18;11.30;93.60
56256;DHT22;57229;51.432;-2.598;2022-12-18T10:56:45;11.30;93.60
56256;DHT22;57229;51.432;-2.598;2022-12-18T10:59:14;11.20;93.60
56256;DHT22;57229;51.432;-2.598;2022-12-18T11:01:55;11.20;93.60
56256;DHT22;57229;51.432;-2.598;2022-12-18T11:04:31;11.20;93.60
56256;DHT22;57229;51.432;-2.598;2022-12-18T11:07:01;11.20;93.60
56256;DHT22;57229;51.432;-2.598;2022-12-18T11:09:29;11.20;93.60
56256;DHT22;57229;51.432;-2.598;2022-12-18T11:11:58;11.20;93.60
56256;DHT22;57229;51.432;-2.598;2022-12-18T11:14:41;11.20;93.60
56256;DHT22;57229;51.432;-2.598;2022-12-18T11:17:19;11.10;93.60
56256;DHT22;57229;51.432;-2.598;2022-12-18T11:19:56;11.10;93.50
56256;DHT22;57229;51.432;-2.598;2022-12-18T11:22:35;11.10;93.60
56256;DHT22;57229;51.432;-2.598;2022-12-18T11:25:18;11.10;93.60
56256;DHT22;57229;51.432;-2.598;2022-12-18T11:31:27;11.10;93.50
56256;DHT22;57229;51.432;-2.598;2022-12-18T11:34:22;11.10;93.50
56256;DHT22;57229;51.432;-2.598;2022-12-18T11:36:50;11.10;93.50
56256;DHT22;57229;51.432;-2.598;2022-12-18T11:39:20;11.10;93.50
56256;DHT22;57229;51.432;-2.598;2022-12-18T11:41:58;11.00;93.50
56256;DHT22;57229;51.432;-2.598;2022-12-18T11:44:57;11.00;93.50
56256;DHT22;57229;51.432;-2.598;2022-12-18T11:50:05;11.00;93.60
56256;DHT22;57229;51.432;-2.598;2022-12-18T11:52:40;11.00;93.60
56256;DHT22;57229;51.432;-2.598;2022-12-18T11:55:27;11.00;93.70
56256;DHT22;57229;51.432;-2.598;2022-12-18T12:01:13;11.00;93.90
56256;DHT22;57229;51.432;-2.598;2022-12-18T12:12:09;11.00;94.60
56256;DHT22;57229;51.432;-2.598;2022-12-18T12:17:34;11.10;95.30
56256;DHT22;57229;51.432;-2.598;2022-12-18T12:20:16;11.20;95.50
56256;DHT22;57229;51.432;-2.598;2022-12-18T12:26:01;11.40;95.60
56256;DHT22;57229;51.432;-2.598;2022-12-18T12:31:11;11.60;95.40
56256;DHT22;57229;51.432;-2.598;2022-12-18T12:33:52;11.70;95.30
56256;DHT22;57229;51.432;-2.598;2022-12-18T12:39:07;11.80;95.10
56256;DHT22;57229;51.432;-2.598;2022-12-18T12:41:34;12.00;95.00
56256;DHT22;57229;51.432;-2.598;2022-12-18T12:44:28;12.00;94.90
56256;DHT22;57229;51.432;-2.598;2022-12-18T12:46:59;12.10;94.90
56256;DHT22;57229;51.432;-2.598;2022-12-18T12:49:31;12.20;94.80
56256;DHT22;57229;51.432;-2.598;2022-12-18T12:52:12;12.20;94.80
56256;DHT22;57229;51.432;-2.598;2022-12-18T12:54:39;12.30;94.70
56256;DHT22;57229;51.432;-2.598;2022-12-18T12:57:15;12.40;94.70
56256;DHT22;57229;51.432;-2.598;2022-12-18T13:02:52;12.50;94.50
56256;DHT22;57229;51.432;-2.598;2022-12-18T13:08:05;12.60;94.40
56256;DHT22;57229;51.432;-2.598;2022-12-18T13:10:34;12.60;94.30
56256;DHT22;57229;51.432;-2.598;2022-12-18T13:13:11;12.70;94.30
56256;DHT22;57229;51.432;-2.598;2022-12-18T13:15:43;12.70;94.20
56256;DHT22;57229;51.432;-2.598;2022-12-18T13:36:38;13.10;93.90
56256;DHT22;57229;51.432;-2.598;2022-12-18T13:41:46;13.20;93.80
56256;DHT22;57229;51.432;-2.598;2022-12-18T13:44:31;13.20;93.70
56256;DHT22;57229;51.432;-2.598;2022-12-18T13:46:58;13.20;93.70
56256;DHT22;57229;51.432;-2.598;2022-12-18T13:49:38;13.30;93.70
56256;DHT22;57229;51.432;-2.598;2022-12-18T13:52:25;13.20;93.60
56256;DHT22;57229;51.432;-2.598;2022-12-18T13:54:54;13.20;93.50
56256;DHT22;57229;51.432;-2.598;2022-12-18T13:57:38;13.20;93.50
56256;DHT22;57229;51.432;-2.598;2022-12-18T14:00:26;13.20;93.40
56256;DHT22;57229;51.432;-2.598;2022-12-18T14:02:54;13.20;93.40
56256;DHT22;57229;51.432;-2.598;2022-12-18T14:05:31;13.10;93.40
56256;DHT22;57229;51.432;-2.598;2022-12-18T14:08:06;13.10;93.30
56256;DHT22;57229;51.432;-2.598;2022-12-18T14:10:33;13.10;93.30
56256;DHT22;57229;51.432;-2.598;2022-12-18T14:13:05;13.00;93.30
56256;DHT22;57229;51.432;-2.598;2022-12-18T14:15:35;13.00;93.30
56256;DHT22;57229;51.432;-2.598;2022-12-18T14:18:07;13.00;93.30
56256;DHT22;57229;51.432;-2.598;2022-12-18T14:20:35;13.00;93.30
56256;DHT22;57229;51.432;-2.598;2022-12-18T14:23:01;12.90;93.20
56256;DHT22;57229;51.432;-2.598;2022-12-18T14:25:28;12.90;93.20
56256;DHT22;57229;51.432;-2.598;2022-12-18T14:30:36;12.90;93.20
56256;DHT22;57229;51.432;-2.598;2022-12-18T14:33:13;12.80;93.20
56256;DHT22;57229;51.432;-2.598;2022-12-18T14:38:36;12.80;93.30
56256;DHT22;57229;51.432;-2.598;2022-12-18T14:41:14;12.70;93.30
56256;DHT22;57229;51.432;-2.598;2022-12-18T14:43:45;12.70;93.30
56256;DHT22;57229;51.432;-2.598;2022-12-18T14:46:37;12.70;93.30
56256;DHT22;57229;51.432;-2.598;2022-12-18T14:51:57;12.60;93.30
56256;DHT22;57229;51.432;-2.598;2022-12-18T14:54:39;12.60;93.30
56256;DHT22;57229;51.432;-2.598;2022-12-18T14:59:40;12.60;93.60
56256;DHT22;57229;51.432;-2.598;2022-12-18T15:02:25;12.60;93.50
56256;DHT22;57229;51.432;-2.598;2022-12-18T15:05:03;12.60;93.40
56256;DHT22;57229;51.432;-2.598;2022-12-18T15:07:43;12.50;93.40
56256;DHT22;57229;51.432;-2.598;2022-12-18T15:10:16;12.50;93.40
56256;DHT22;57229;51.432;-2.598;2022-12-18T15:25:57;12.40;93.50
56256;DHT22;57229;51.432;-2.598;2022-12-18T15:28:35;12.40;93.60
56256;DHT22;57229;51.432;-2.598;2022-12-18T15:33:34;12.40;93.60
56256;DHT22;57229;51.432;-2.598;2022-12-18T15:36:05;12.40;93.60
56256;DHT22;57229;51.432;-2.598;2022-12-18T15:38:31;12.40;93.60
56256;DHT22;57229;51.432;-2.598;2022-12-18T15:40:57;12.40;93.60
56256;DHT22;57229;51.432;-2.598;2022-12-18T15:43:24;12.40;93.60
56256;DHT22;57229;51.432;-2.598;2022-12-18T15:46:09;12.30;93.60
56256;DHT22;57229;51.432;-2.598;2022-12-18T15:48:43;12.30;93.60
56256;DHT22;57229;51.432;-2.598;2022-12-18T15:51:18;12.40;93.60
56256;DHT22;57229;51.432;-2.598;2022-12-18T15:53:46;12.30;93.60
56256;DHT22;57229;51.432;-2.598;2022-12-18T15:56:11;12.30;93.60
56256;DHT22;57229;51.432;-2.598;2022-12-18T15:58:56;12.30;93.70
56256;DHT22;57229;51.432;-2.598;2022-12-18T16:01:24;12.30;93.70
56256;DHT22;57229;51.432;-2.598;2022-12-18T16:03:51;12.30;93.70
56256;DHT22;57229;51.432;-2.598;2022-12-18T16:06:16;12.30;93.70
56256;DHT22;57229;51.432;-2.598;2022-12-18T16:08:42;12.30;93.70
56256;DHT22;57229;51.432;-2.598;2022-12-18T16:11:23;12.20;93.70
56256;DHT22;57229;51.432;-2.598;2022-12-18T16:16:38;12.20;93.70
56256;DHT22;57229;51.432;-2.598;2022-12-18T16:19:03;12.20;93.70
56256;DHT22;57229;51.432;-2.598;2022-12-18T16:21:29;12.20;93.70
56256;DHT22;57229;51.432;-2.598;2022-12-18T16:23:55;12.20;93.70
56256;DHT22;57229;51.432;-2.598;2022-12-18T16:26:20;12.20;93.70
56256;DHT22;57229;51.432;-2.598;2022-12-18T16:28:46;12.20;93.70
56256;DHT22;57229;51.432;-2.598;2022-12-18T16:31:12;12.20;93.70
56256;DHT22;57229;51.432;-2.598;2022-12-18T16:33:37;12.20;93.70
56256;DHT22;57229;51.432;-2.598;2022-12-18T16:36:03;12.20;93.80
56256;DHT22;57229;51.432;-2.598;2022-12-18T16:38:29;12.20;93.70
56256;DHT22;57229;51.432;-2.598;2022-12-18T16:40:55;12.10;93.80
56256;DHT22;57229;51.432;-2.598;2022-12-18T16:43:39;12.20;93.80
56256;DHT22;57229;51.432;-2.598;2022-12-18T16:46:05;12.20;93.80
56256;DHT22;57229;51.432;-2.598;2022-12-18T16:48:31;12.10;93.80
56256;DHT22;57229;51.432;-2.598;2022-12-18T16:51:04;12.10;93.90
56256;DHT22;57229;51.432;-2.598;2022-12-18T16:53:32;12.20;94.00
56256;DHT22;57229;51.432;-2.598;2022-12-18T16:55:57;12.20;94.00
56256;DHT22;57229;51.432;-2.598;2022-12-18T16:58:23;12.20;93.90
56256;DHT22;57229;51.432;-2.598;2022-12-18T17:00:49;12.20;94.00
56256;DHT22;57229;51.432;-2.598;2022-12-18T17:03:15;12.20;94.00
56256;DHT22;57229;51.432;-2.598;2022-12-18T17:05:40;12.20;94.00
56256;DHT22;57229;51.432;-2.598;2022-12-18T17:08:07;12.20;93.90
56256;DHT22;57229;51.432;-2.598;2022-12-18T17:10:36;12.20;93.90
56256;DHT22;57229;51.432;-2.598;2022-12-18T17:13:02;12.20;95.90
56256;DHT22;57229;51.432;-2.598;2022-12-18T17:15:28;12.30;96.30
56256;DHT22;57229;51.432;-2.598;2022-12-18T17:17:53;12.30;96.00
56256;DHT22;57229;51.432;-2.598;2022-12-18T17:20:19;12.30;95.90
56256;DHT22;57229;51.432;-2.598;2022-12-18T17:22:45;12.30;95.90
56256;DHT22;57229;51.432;-2.598;2022-12-18T17:25:10;12.20;95.60
56256;DHT22;57229;51.432;-2.598;2022-12-18T17:27:36;12.30;95.60
56256;DHT22;57229;51.432;-2.598;2022-12-18T17:30:02;12.20;95.40
56256;DHT22;57229;51.432;-2.598;2022-12-18T17:32:28;12.30;95.30
56256;DHT22;57229;51.432;-2.598;2022-12-18T17:34:54;12.30;95.30
56256;DHT22;57229;51.432;-2.598;2022-12-18T17:37:20;12.30;95.20
56256;DHT22;57229;51.432;-2.598;2022-12-18T17:39:46;12.30;95.10
56256;DHT22;57229;51.432;-2.598;2022-12-18T17:42:12;12.20;95.00
56256;DHT22;57229;51.432;-2.598;2022-12-18T17:44:39;12.20;95.00